Time;durP1;ratioP1;P1;durP2;ratioP2;P2;SDS_P1;SDS_P2;PMS_P1;PMS_P2;Temp;Humidity;BMP_temperature;BMP_pressure;BME280_temperature;BME280_humidity;BME280_pressure;Samples;Min_cycle;Max_cycle;Signal;HPM_P1;HPM_P2
2024/03/14 00:00:03;;;;;;;1.70;1.40;;;;;;;;;;5025300;28;20041;-62
2024/03/14 00:02:29;;;;;;;1.87;1.10;;;;;;;;;;5019723;28;20053;-61
2024/03/14 00:04:54;;;;;;;1.80;1.00;;;;;;;;;;5046080;28;20032;-59
2024/03/14 00:07:22;;;;;;;1.75;1.25;;;;;;;;;;5035702;28;20405;-64
2024/03/14 00:09:48;;;;;;;1.73;1.30;;;;;;;;;;5024702;28;20116;-60
2024/03/14 00:12:13;;;;;;;1.67;1.30;;;;;;;;;;5037787;28;20031;-57
2024/03/14 00:14:44;;;;;;;2.00;1.30;;;;;;;;;;5025409;28;20120;-64
2024/03/14 00:17:09;;;;;;;1.77;1.05;;;;;;;;;;5026466;28;20025;-59
2024/03/14 00:19:35;;;;;;;1.17;0.90;;;;;;;;;;5025336;28;20455;-66
2024/03/14 00:22:00;;;;;;;1.60;1.08;;;;;;;;;;5025353;28;20782;-67
2024/03/14 00:24:25;;;;;;;1.52;1.10;;;;;;;;;;5025092;28;20025;-58
2024/03/14 00:26:51;;;;;;;1.88;1.10;;;;;;;;;;5025457;28;20020;-66
2024/03/14 00:29:17;;;;;;;2.40;1.30;;;;;;;;;;5027288;28;20504;-58
2024/03/14 00:31:43;;;;;;;1.88;1.10;;;;;;;;;;5039630;28;20072;-57
2024/03/14 00:34:08;;;;;;;2.42;1.17;;;;;;;;;;5028141;28;20033;-57
2024/03/14 00:36:37;;;;;;;1.85;1.10;;;;;;;;;;5044791;28;20021;-57
2024/03/14 00:39:03;;;;;;;1.80;1.20;;;;;;;;;;5035553;28;20589;-63
2024/03/14 00:41:28;;;;;;;1.90;1.27;;;;;;;;;;5026184;28;20049;-65
2024/03/14 00:43:54;;;;;;;1.52;1.02;;;;;;;;;;5026657;28;20078;-67
2024/03/14 00:46:19;;;;;;;2.17;1.30;;;;;;;;;;5029225;28;20043;-63
2024/03/14 00:48:44;;;;;;;1.58;1.10;;;;;;;;;;5025828;28;20387;-63
2024/03/14 00:51:10;;;;;;;1.92;1.10;;;;;;;;;;5025201;28;20028;-62
2024/03/14 00:53:36;;;;;;;1.90;1.33;;;;;;;;;;5026830;28;20061;-70
2024/03/14 00:56:01;;;;;;;1.80;1.20;;;;;;;;;;5025131;28;20034;-69
2024/03/14 00:58:27;;;;;;;1.65;1.10;;;;;;;;;;5028844;28;20226;-70
2024/03/14 01:00:53;;;;;;;1.40;1.00;;;;;;;;;;5034147;28;20041;-69
2024/03/14 01:03:18;;;;;;;1.35;0.95;;;;;;;;;;5027814;28;21170;-60
2024/03/14 01:05:44;;;;;;;2.08;1.23;;;;;;;;;;5024665;28;20030;-57
2024/03/14 01:08:10;;;;;;;1.50;1.00;;;;;;;;;;5024702;28;20517;-58
2024/03/14 01:10:36;;;;;;;1.73;1.20;;;;;;;;;;5022148;28;20524;-59
2024/03/14 01:13:01;;;;;;;1.45;1.00;;;;;;;;;;5023804;28;20044;-57
2024/03/14 01:15:26;;;;;;;1.83;1.30;;;;;;;;;;5023098;28;20049;-58
2024/03/14 01:17:51;;;;;;;1.35;0.95;;;;;;;;;;5024315;28;20090;-57
2024/03/14 01:20:17;;;;;;;2.05;1.17;;;;;;;;;;5028712;28;20037;-58
2024/03/14 01:22:42;;;;;;;1.75;1.20;;;;;;;;;;5024045;28;20488;-59
2024/03/14 01:25:07;;;;;;;2.13;1.10;;;;;;;;;;5027648;28;20033;-57
2024/03/14 01:27:33;;;;;;;1.10;0.80;;;;;;;;;;5033954;28;20022;-60
2024/03/14 01:29:58;;;;;;;1.33;1.10;;;;;;;;;;5029042;28;20036;-57
2024/03/14 01:32:24;;;;;;;1.60;1.00;;;;;;;;;;5033322;28;20040;-57
2024/03/14 01:34:50;;;;;;;1.67;1.05;;;;;;;;;;5024228;28;20048;-60
2024/03/14 01:37:15;;;;;;;1.73;1.15;;;;;;;;;;5027590;28;20021;-58
2024/03/14 01:39:40;;;;;;;1.45;1.00;;;;;;;;;;5026910;28;20474;-58
2024/03/14 01:42:06;;;;;;;1.33;0.90;;;;;;;;;;5025261;28;20112;-58
2024/03/14 01:44:38;;;;;;;1.60;0.90;;;;;;;;;;5031630;28;20037;-58
2024/03/14 01:47:05;;;;;;;1.75;1.00;;;;;;;;;;5042149;28;20048;-62
2024/03/14 01:49:32;;;;;;;1.40;1.00;;;;;;;;;;5034831;28;20031;-57
2024/03/14 01:51:58;;;;;;;1.55;0.88;;;;;;;;;;5041720;28;20039;-58
2024/03/14 01:54:23;;;;;;;1.48;1.10;;;;;;;;;;5028450;28;20128;-57
2024/03/14 01:56:57;;;;;;;1.75;0.95;;;;;;;;;;5030846;28;20471;-60
2024/03/14 01:59:23;;;;;;;1.58;0.90;;;;;;;;;;5027856;28;20196;-61
2024/03/14 02:01:49;;;;;;;0.98;0.70;;;;;;;;;;5031592;28;20143;-60
2024/03/14 02:04:17;;;;;;;1.50;0.93;;;;;;;;;;5032290;28;20084;-60
2024/03/14 02:06:52;;;;;;;1.30;1.00;;;;;;;;;;5029371;28;20029;-58
2024/03/14 02:09:22;;;;;;;1.30;0.90;;;;;;;;;;5027193;28;20107;-62
2024/03/14 02:11:48;;;;;;;1.25;0.82;;;;;;;;;;5019698;28;20037;-58
2024/03/14 02:14:13;;;;;;;1.98;1.00;;;;;;;;;;5027688;28;20038;-58
2024/03/14 02:16:38;;;;;;;1.27;1.10;;;;;;;;;;5027664;28;20064;-58
2024/03/14 02:19:03;;;;;;;1.55;0.98;;;;;;;;;;5027436;28;20063;-57
2024/03/14 02:21:30;;;;;;;1.83;1.10;;;;;;;;;;5027032;28;20127;-60
2024/03/14 02:23:55;;;;;;;1.50;1.00;;;;;;;;;;5027739;28;20045;-58
2024/03/14 02:26:21;;;;;;;1.38;0.93;;;;;;;;;;5027027;28;20597;-59
2024/03/14 02:28:47;;;;;;;1.38;0.98;;;;;;;;;;5027566;28;20042;-57
2024/03/14 02:31:12;;;;;;;1.25;0.90;;;;;;;;;;5038509;28;20045;-58
2024/03/14 02:33:38;;;;;;;1.50;1.00;;;;;;;;;;5027298;28;20045;-58
2024/03/14 02:36:04;;;;;;;1.15;0.90;;;;;;;;;;5025883;28;20072;-57
2024/03/14 02:38:30;;;;;;;1.23;0.77;;;;;;;;;;5026604;28;20046;-59
2024/03/14 02:40:55;;;;;;;1.38;0.98;;;;;;;;;;5020717;28;20099;-58
2024/03/14 02:43:22;;;;;;;1.52;1.00;;;;;;;;;;5027461;28;20472;-61
2024/03/14 02:45:47;;;;;;;1.58;0.90;;;;;;;;;;5038945;28;20582;-57
2024/03/14 02:48:13;;;;;;;1.67;1.00;;;;;;;;;;5031789;28;20037;-59
2024/03/14 02:50:38;;;;;;;1.38;1.00;;;;;;;;;;5039774;28;20043;-58
2024/03/14 02:53:04;;;;;;;1.27;0.95;;;;;;;;;;5030101;28;20037;-59
2024/03/14 02:55:30;;;;;;;1.10;0.82;;;;;;;;;;5036072;28;20432;-59
2024/03/14 02:57:55;;;;;;;1.35;0.85;;;;;;;;;;5044774;28;20033;-58
2024/03/14 03:00:22;;;;;;;1.33;0.90;;;;;;;;;;5032413;28;20413;-57
2024/03/14 03:02:47;;;;;;;1.27;0.90;;;;;;;;;;5025391;28;20036;-58
2024/03/14 03:05:12;;;;;;;1.55;0.95;;;;;;;;;;5026923;28;20030;-58
2024/03/14 03:07:38;;;;;;;1.08;0.70;;;;;;;;;;5028732;28;20062;-58
2024/03/14 03:10:06;;;;;;;1.02;0.77;;;;;;;;;;5027043;28;20474;-58
2024/03/14 03:12:31;;;;;;;1.20;0.80;;;;;;;;;;5025218;28;20092;-55
2024/03/14 03:14:57;;;;;;;1.55;0.90;;;;;;;;;;5026739;28;20489;-56
2024/03/14 03:17:23;;;;;;;1.42;0.80;;;;;;;;;;5026690;28;20148;-57
2024/03/14 03:19:49;;;;;;;1.20;0.95;;;;;;;;;;5030014;28;20040;-56
2024/03/14 03:22:14;;;;;;;1.42;0.90;;;;;;;;;;5028683;28;20037;-57
2024/03/14 03:24:40;;;;;;;1.17;0.77;;;;;;;;;;5028212;28;20048;-56
2024/03/14 03:27:13;;;;;;;1.15;0.90;;;;;;;;;;5029032;28;20544;-56
2024/03/14 03:29:39;;;;;;;1.20;0.80;;;;;;;;;;5027027;28;20417;-57
2024/03/14 03:32:04;;;;;;;1.70;0.90;;;;;;;;;;5031871;28;20037;-57
2024/03/14 03:34:29;;;;;;;1.02;0.75;;;;;;;;;;5025774;28;20041;-57
2024/03/14 03:36:54;;;;;;;1.38;0.88;;;;;;;;;;5035153;28;20052;-57
2024/03/14 03:39:20;;;;;;;1.58;0.93;;;;;;;;;;5026576;28;20034;-63
2024/03/14 03:41:46;;;;;;;1.02;0.73;;;;;;;;;;5028001;28;20029;-59
2024/03/14 03:44:11;;;;;;;1.30;0.82;;;;;;;;;;5024766;28;20111;-57
2024/03/14 03:46:42;;;;;;;1.25;0.70;;;;;;;;;;5032640;28;20065;-58
2024/03/14 03:49:07;;;;;;;1.30;0.80;;;;;;;;;;5027048;28;20025;-57
2024/03/14 03:51:33;;;;;;;1.00;0.80;;;;;;;;;;5026127;28;20034;-58
2024/03/14 03:53:58;;;;;;;1.30;0.90;;;;;;;;;;5025345;28;20144;-57
2024/03/14 03:56:24;;;;;;;1.00;0.63;;;;;;;;;;5033741;28;20116;-57
2024/03/14 03:58:50;;;;;;;1.20;0.70;;;;;;;;;;5026404;28;20125;-57
2024/03/14 04:01:20;;;;;;;1.15;0.90;;;;;;;;;;5026589;28;20153;-60
2024/03/14 04:03:45;;;;;;;1.15;0.80;;;;;;;;;;5039393;28;20045;-57
2024/03/14 04:06:16;;;;;;;1.42;0.70;;;;;;;;;;5025641;28;20034;-62
2024/03/14 04:08:43;;;;;;;1.40;0.80;;;;;;;;;;5037370;28;20385;-56
2024/03/14 04:11:09;;;;;;;1.60;1.00;;;;;;;;;;5039290;28;20037;-57
2024/03/14 04:13:34;;;;;;;1.80;0.80;;;;;;;;;;5023046;28;20049;-57
2024/03/14 04:16:00;;;;;;;1.50;0.85;;;;;;;;;;5025365;28;20322;-58
2024/03/14 04:18:29;;;;;;;1.20;0.77;;;;;;;;;;5024066;28;20056;-57
2024/03/14 04:20:54;;;;;;;1.20;0.77;;;;;;;;;;5040075;28;20078;-69
2024/03/14 04:23:20;;;;;;;0.95;0.57;;;;;;;;;;5024652;28;20045;-57
2024/03/14 04:25:46;;;;;;;1.10;0.80;;;;;;;;;;5026605;28;20056;-57
2024/03/14 04:28:13;;;;;;;1.20;0.90;;;;;;;;;;5026452;28;20037;-56
2024/03/14 04:30:38;;;;;;;1.08;0.70;;;;;;;;;;5025481;28;20033;-62
2024/03/14 04:33:03;;;;;;;1.25;0.75;;;;;;;;;;5027256;28;20468;-57
2024/03/14 04:35:31;;;;;;;1.10;0.70;;;;;;;;;;5025283;28;20076;-57
2024/03/14 04:37:56;;;;;;;1.15;0.80;;;;;;;;;;5022648;28;20049;-60
2024/03/14 04:40:22;;;;;;;1.90;0.90;;;;;;;;;;5010122;28;20018;-62
2024/03/14 04:42:47;;;;;;;1.60;0.80;;;;;;;;;;5015359;28;20470;-59
2024/03/14 04:45:17;;;;;;;1.00;0.70;;;;;;;;;;5018241;28;20025;-61
2024/03/14 04:47:42;;;;;;;1.45;0.85;;;;;;;;;;5017860;28;20014;-57
2024/03/14 04:50:13;;;;;;;1.00;0.85;;;;;;;;;;5019176;28;20413;-57
2024/03/14 04:52:41;;;;;;;1.25;0.80;;;;;;;;;;5019080;28;20080;-57
2024/03/14 04:55:10;;;;;;;1.10;0.65;;;;;;;;;;5011766;28;20033;-57
2024/03/14 04:57:36;;;;;;;0.80;0.60;;;;;;;;;;5011705;28;23174;-56
2024/03/14 05:00:03;;;;;;;1.00;0.60;;;;;;;;;;5011243;28;20046;-57
2024/03/14 05:02:29;;;;;;;0.77;0.60;;;;;;;;;;5011152;28;20049;-59
2024/03/14 05:04:55;;;;;;;0.90;0.50;;;;;;;;;;5010919;28;20115;-56
2024/03/14 05:07:20;;;;;;;1.77;0.68;;;;;;;;;;5012917;28;20128;-58
2024/03/14 05:09:47;;;;;;;1.35;0.70;;;;;;;;;;5018354;28;20398;-57
2024/03/14 05:12:13;;;;;;;1.35;0.70;;;;;;;;;;5018931;28;20417;-62
2024/03/14 05:14:39;;;;;;;0.70;0.43;;;;;;;;;;5023180;28;20041;-66
2024/03/14 05:17:04;;;;;;;0.88;0.60;;;;;;;;;;5022936;28;20029;-60
2024/03/14 05:19:30;;;;;;;2.08;0.50;;;;;;;;;;5013010;28;20216;-59
2024/03/14 05:21:55;;;;;;;0.95;0.43;;;;;;;;;;5014755;28;20041;-63
2024/03/14 05:24:21;;;;;;;0.90;0.40;;;;;;;;;;5016302;28;20049;-57
2024/03/14 05:26:46;;;;;;;2.25;0.60;;;;;;;;;;5011649;28;20075;-57
2024/03/14 05:29:11;;;;;;;1.05;0.50;;;;;;;;;;5011154;28;20734;-61
2024/03/14 05:31:37;;;;;;;0.70;0.40;;;;;;;;;;5011595;28;20033;-61
2024/03/14 05:34:02;;;;;;;0.80;0.40;;;;;;;;;;5009793;28;20042;-60
2024/03/14 05:36:27;;;;;;;0.93;0.50;;;;;;;;;;5011761;28;20108;-58
2024/03/14 05:38:53;;;;;;;0.75;0.50;;;;;;;;;;5011831;28;20124;-65
2024/03/14 05:41:19;;;;;;;1.38;0.50;;;;;;;;;;5010838;28;20034;-60
2024/03/14 05:43:45;;;;;;;1.00;0.50;;;;;;;;;;5010961;28;20048;-67
2024/03/14 05:46:11;;;;;;;0.98;0.40;;;;;;;;;;5012008;28;20033;-58
2024/03/14 05:48:36;;;;;;;1.17;0.40;;;;;;;;;;5011188;28;20096;-56
2024/03/14 05:51:01;;;;;;;0.88;0.60;;;;;;;;;;5011892;28;20053;-57
2024/03/14 05:53:30;;;;;;;0.90;0.52;;;;;;;;;;5010770;28;20501;-57
2024/03/14 05:55:56;;;;;;;1.50;0.38;;;;;;;;;;5011322;28;20525;-56
2024/03/14 05:58:21;;;;;;;0.85;0.50;;;;;;;;;;5010295;28;20070;-61
2024/03/14 06:00:47;;;;;;;1.10;0.50;;;;;;;;;;5010897;28;20048;-62
2024/03/14 06:03:13;;;;;;;1.02;0.60;;;;;;;;;;5010678;28;22161;-66
2024/03/14 06:05:38;;;;;;;0.93;0.55;;;;;;;;;;5011390;28;20050;-58
2024/03/14 06:08:04;;;;;;;1.17;0.35;;;;;;;;;;5010729;28;20049;-63
2024/03/14 06:10:29;;;;;;;1.05;0.40;;;;;;;;;;5010322;28;20044;-57
2024/03/14 06:12:54;;;;;;;0.70;0.50;;;;;;;;;;5010790;28;20034;-65
2024/03/14 06:15:20;;;;;;;1.05;0.45;;;;;;;;;;5011043;28;20050;-59
2024/03/14 06:17:50;;;;;;;1.90;0.60;;;;;;;;;;5012833;28;20072;-60
2024/03/14 06:20:18;;;;;;;;;;;;;;;;;;5011238;28;20530;-61
2024/03/14 06:22:44;;;;;;;2.55;0.60;;;;;;;;;;5010416;28;20000;-64
2024/03/14 06:25:10;;;;;;;1.83;0.77;;;;;;;;;;5009749;28;20115;-61
2024/03/14 06:27:36;;;;;;;2.45;0.47;;;;;;;;;;5011132;28;20030;-60
2024/03/14 06:30:03;;;;;;;1.35;0.50;;;;;;;;;;5011701;28;20033;-60
2024/03/14 06:32:29;;;;;;;1.45;0.50;;;;;;;;;;5011684;28;20049;-58
2024/03/14 06:34:54;;;;;;;3.00;0.50;;;;;;;;;;5014729;28;20045;-62
2024/03/14 06:37:19;;;;;;;5.35;0.73;;;;;;;;;;5014422;28;20190;-62
2024/03/14 06:39:47;;;;;;;1.30;0.57;;;;;;;;;;5012877;28;20468;-61
2024/03/14 06:42:13;;;;;;;2.40;0.80;;;;;;;;;;5013132;28;20740;-61
2024/03/14 06:44:38;;;;;;;3.63;0.80;;;;;;;;;;5012978;28;21747;-59
2024/03/14 06:47:03;;;;;;;2.47;0.80;;;;;;;;;;5013981;28;20049;-58
2024/03/14 06:49:29;;;;;;;1.55;0.68;;;;;;;;;;5015107;28;20593;-58
2024/03/14 06:51:56;;;;;;;1.27;0.50;;;;;;;;;;5016599;28;20065;-57
2024/03/14 06:54:21;;;;;;;1.67;0.50;;;;;;;;;;5015218;28;20875;-59
2024/03/14 06:56:46;;;;;;;2.42;0.60;;;;;;;;;;5013498;28;20037;-65
2024/03/14 06:59:14;;;;;;;1.50;0.68;;;;;;;;;;5013807;28;20045;-59
2024/03/14 07:01:40;;;;;;;2.25;0.60;;;;;;;;;;5013124;28;20112;-58
2024/03/14 07:04:05;;;;;;;1.70;0.75;;;;;;;;;;5013678;28;20413;-58
2024/03/14 07:06:34;;;;;;;4.13;0.80;;;;;;;;;;5013106;28;20045;-59
2024/03/14 07:09:00;;;;;;;3.20;0.70;;;;;;;;;;5013971;28;20030;-64
2024/03/14 07:11:25;;;;;;;3.45;0.82;;;;;;;;;;5015924;28;20492;-59
2024/03/14 07:13:54;;;;;;;3.15;0.90;;;;;;;;;;5014617;28;20050;-65
2024/03/14 07:16:21;;;;;;;4.55;0.98;;;;;;;;;;5012381;28;20037;-62
2024/03/14 07:18:47;;;;;;;3.10;0.80;;;;;;;;;;5013551;28;20532;-62
2024/03/14 07:21:13;;;;;;;2.58;0.63;;;;;;;;;;5013400;28;20506;-66
2024/03/14 07:23:38;;;;;;;3.25;0.90;;;;;;;;;;5013455;28;20088;-63
2024/03/14 07:26:05;;;;;;;3.80;1.00;;;;;;;;;;5012828;28;20052;-65
2024/03/14 07:28:31;;;;;;;1.80;0.73;;;;;;;;;;5014422;28;20033;-69
2024/03/14 07:30:57;;;;;;;2.65;0.90;;;;;;;;;;5012716;28;20041;-65
2024/03/14 07:33:22;;;;;;;4.43;0.70;;;;;;;;;;5045802;28;20059;-65
2024/03/14 07:35:48;;;;;;;1.45;0.70;;;;;;;;;;5013060;28;20135;-65
2024/03/14 07:38:14;;;;;;;1.90;0.60;;;;;;;;;;5013905;28;20092;-65
2024/03/14 07:40:39;;;;;;;2.55;0.70;;;;;;;;;;5018379;28;20041;-63
2024/03/14 07:43:05;;;;;;;1.40;0.52;;;;;;;;;;5014213;28;20034;-58
2024/03/14 07:45:30;;;;;;;1.48;0.60;;;;;;;;;;5012746;28;20038;-57
2024/03/14 07:47:56;;;;;;;1.40;0.73;;;;;;;;;;5013169;28;20510;-57
2024/03/14 07:50:22;;;;;;;1.67;0.52;;;;;;;;;;5013573;28;20025;-57
2024/03/14 07:52:48;;;;;;;3.05;0.80;;;;;;;;;;5012557;28;20176;-58
2024/03/14 07:55:16;;;;;;;2.80;1.00;;;;;;;;;;5017258;28;20038;-61
2024/03/14 07:57:41;;;;;;;3.35;0.80;;;;;;;;;;5015113;28;20474;-64
2024/03/14 08:00:14;;;;;;;1.60;0.70;;;;;;;;;;5012552;28;20205;-69
2024/03/14 08:02:42;;;;;;;2.40;0.98;;;;;;;;;;5012782;28;20037;-63
2024/03/14 08:05:07;;;;;;;2.03;0.65;;;;;;;;;;5013716;28;20098;-62
2024/03/14 08:07:33;;;;;;;2.80;0.70;;;;;;;;;;5014053;28;20037;-65
2024/03/14 08:09:58;;;;;;;2.58;0.88;;;;;;;;;;5012915;28;20033;-69
2024/03/14 08:12:24;;;;;;;2.15;0.70;;;;;;;;;;5012765;28;20523;-69
2024/03/14 08:14:49;;;;;;;2.05;0.63;;;;;;;;;;5012564;28;22074;-69
2024/03/14 08:17:15;;;;;;;1.25;0.70;;;;;;;;;;5013677;28;20049;-62
2024/03/14 08:19:40;;;;;;;1.20;0.50;;;;;;;;;;5012727;28;21769;-67
2024/03/14 08:22:06;;;;;;;2.42;0.77;;;;;;;;;;5011936;28;20045;-57
2024/03/14 08:24:47;;;;;;;1.63;0.60;;;;;;;;;;5013600;28;20069;-61
2024/03/14 08:27:13;;;;;;;2.40;0.80;;;;;;;;;;5028263;28;20385;-59
2024/03/14 08:29:39;;;;;;;2.38;0.80;;;;;;;;;;5025391;28;20034;-57
2024/03/14 08:32:05;;;;;;;2.13;0.60;;;;;;;;;;5019648;28;20049;-60
2024/03/14 08:34:31;;;;;;;1.80;0.57;;;;;;;;;;5043046;28;20517;-57
2024/03/14 08:36:56;;;;;;;1.90;0.60;;;;;;;;;;5044709;28;20111;-62
2024/03/14 08:39:22;;;;;;;1.77;0.80;;;;;;;;;;5032436;28;20136;-57
2024/03/14 08:41:48;;;;;;;1.85;0.73;;;;;;;;;;5025154;28;20507;-57
2024/03/14 08:44:13;;;;;;;1.15;0.52;;;;;;;;;;5025268;28;20101;-57
2024/03/14 08:46:38;;;;;;;1.55;0.70;;;;;;;;;;5024574;28;20037;-59
2024/03/14 08:49:04;;;;;;;2.53;0.80;;;;;;;;;;5025699;28;20458;-56
2024/03/14 08:51:31;;;;;;;2.00;0.80;;;;;;;;;;5024524;28;20111;-57
2024/03/14 08:56:40;;;;;;;1.67;0.60;;;;;;;;;;5024100;28;20578;-58
2024/03/14 08:59:07;;;;;;;1.23;0.63;;;;;;;;;;5025294;28;20104;-59
2024/03/14 09:01:33;;;;;;;2.88;0.90;;;;;;;;;;5024696;28;20041;-57
2024/03/14 09:03:59;;;;;;;1.70;0.75;;;;;;;;;;5026668;28;20037;-56
2024/03/14 09:06:28;;;;;;;2.33;0.70;;;;;;;;;;5041215;28;20032;-64
2024/03/14 09:08:55;;;;;;;2.20;0.70;;;;;;;;;;5044091;28;20025;-57
2024/03/14 09:11:21;;;;;;;1.80;0.60;;;;;;;;;;5044143;28;20408;-58
2024/03/14 09:13:47;;;;;;;2.22;0.80;;;;;;;;;;5044695;28;20048;-57
2024/03/14 09:16:12;;;;;;;2.45;0.80;;;;;;;;;;5031345;28;20069;-59
2024/03/14 09:18:38;;;;;;;1.45;0.85;;;;;;;;;;5024686;28;20112;-57
2024/03/14 09:21:05;;;;;;;1.17;0.60;;;;;;;;;;5028123;28;20325;-57
2024/03/14 09:23:30;;;;;;;2.15;0.77;;;;;;;;;;5044915;28;20033;-58
2024/03/14 09:25:57;;;;;;;1.95;0.73;;;;;;;;;;5044275;28;20090;-58
2024/03/14 09:28:25;;;;;;;3.28;1.02;;;;;;;;;;5041042;28;20453;-59
2024/03/14 09:30:57;;;;;;;1.60;0.80;;;;;;;;;;5034842;28;20144;-57
2024/03/14 09:33:24;;;;;;;2.20;0.85;;;;;;;;;;5029517;28;20048;-57
2024/03/14 09:35:49;;;;;;;1.55;0.60;;;;;;;;;;5044527;28;20033;-62
2024/03/14 09:38:15;;;;;;;1.40;0.75;;;;;;;;;;5037403;28;20102;-57
2024/03/14 09:40:40;;;;;;;1.25;0.55;;;;;;;;;;5024927;28;20044;-57
2024/03/14 09:43:06;;;;;;;1.63;0.70;;;;;;;;;;5030062;28;20178;-56
2024/03/14 09:45:31;;;;;;;1.40;0.68;;;;;;;;;;5038728;28;20742;-59
2024/03/14 09:47:56;;;;;;;2.17;0.90;;;;;;;;;;5022785;28;20026;-62
2024/03/14 09:50:22;;;;;;;1.60;0.90;;;;;;;;;;5025050;28;20112;-59
2024/03/14 09:52:48;;;;;;;1.70;0.82;;;;;;;;;;5024274;28;20080;-57
2024/03/14 09:55:14;;;;;;;1.88;0.60;;;;;;;;;;5025063;28;20190;-59
2024/03/14 09:57:40;;;;;;;1.52;0.73;;;;;;;;;;5024770;28;20033;-57
2024/03/14 10:00:08;;;;;;;1.75;0.57;;;;;;;;;;5024781;28;20045;-59
2024/03/14 10:02:33;;;;;;;1.10;0.60;;;;;;;;;;5031238;28;20041;-57
2024/03/14 10:04:58;;;;;;;2.10;0.90;;;;;;;;;;5046991;28;20056;-57
2024/03/14 10:07:24;;;;;;;2.33;1.00;;;;;;;;;;5047257;28;20037;-57
2024/03/14 10:09:49;;;;;;;1.25;0.60;;;;;;;;;;5048135;28;20029;-57
2024/03/14 10:12:15;;;;;;;1.27;0.80;;;;;;;;;;5047807;28;20033;-57
2024/03/14 10:14:43;;;;;;;1.10;0.70;;;;;;;;;;5047739;28;20530;-57
2024/03/14 10:17:10;;;;;;;1.60;0.80;;;;;;;;;;5033083;28;20029;-57
2024/03/14 10:19:35;;;;;;;1.15;0.57;;;;;;;;;;5028354;28;20044;-57
2024/03/14 10:22:02;;;;;;;1.45;0.73;;;;;;;;;;5027651;28;20026;-60
2024/03/14 10:24:28;;;;;;;1.48;0.68;;;;;;;;;;5033862;28;20535;-57
2024/03/14 10:26:55;;;;;;;2.63;0.65;;;;;;;;;;5046251;28;20033;-57
2024/03/14 10:29:22;;;;;;;1.73;0.77;;;;;;;;;;5047890;28;20043;-62
2024/03/14 10:31:48;;;;;;;0.98;0.63;;;;;;;;;;5033056;28;20049;-58
2024/03/14 10:34:14;;;;;;;1.80;1.00;;;;;;;;;;5036403;28;20037;-56
2024/03/14 10:36:41;;;;;;;1.65;0.80;;;;;;;;;;5046016;28;20076;-57
2024/03/14 10:39:08;;;;;;;1.27;0.60;;;;;;;;;;5035825;28;20048;-58
2024/03/14 10:41:33;;;;;;;2.00;0.85;;;;;;;;;;5006814;28;20037;-56
2024/03/14 10:43:59;;;;;;;1.30;0.85;;;;;;;;;;5035989;28;20060;-58
2024/03/14 10:46:24;;;;;;;1.15;0.80;;;;;;;;;;5038455;28;20037;-57
2024/03/14 10:48:49;;;;;;;1.75;0.85;;;;;;;;;;5026169;28;20037;-57
2024/03/14 10:51:16;;;;;;;1.88;0.70;;;;;;;;;;5026132;28;20381;-58
2024/03/14 10:53:41;;;;;;;1.27;0.80;;;;;;;;;;5027105;28;20038;-58
2024/03/14 10:56:13;;;;;;;1.08;0.60;;;;;;;;;;5027327;28;20040;-57
2024/03/14 10:58:40;;;;;;;1.90;0.70;;;;;;;;;;5026736;28;20087;-62
2024/03/14 11:01:06;;;;;;;1.73;0.82;;;;;;;;;;5025751;28;20051;-56
2024/03/14 11:03:33;;;;;;;2.17;0.70;;;;;;;;;;5037184;28;20041;-56
2024/03/14 11:05:59;;;;;;;1.42;0.70;;;;;;;;;;5047171;28;20045;-58
2024/03/14 11:08:26;;;;;;;1.70;0.80;;;;;;;;;;5032143;28;20041;-61
2024/03/14 11:10:51;;;;;;;1.05;0.63;;;;;;;;;;5014497;28;20025;-56
2024/03/14 11:13:26;;;;;;;1.98;0.77;;;;;;;;;;5012383;28;20391;-57
2024/03/14 11:15:51;;;;;;;1.23;0.77;;;;;;;;;;5011105;28;20057;-60
2024/03/14 11:18:17;;;;;;;2.50;0.70;;;;;;;;;;5023923;28;20449;-61
2024/03/14 11:20:43;;;;;;;1.50;0.80;;;;;;;;;;5036119;28;20466;-62
2024/03/14 11:23:12;;;;;;;1.05;0.60;;;;;;;;;;5024989;28;20037;-57
2024/03/14 11:25:38;;;;;;;1.38;0.63;;;;;;;;;;5040958;28;20117;-56
2024/03/14 11:28:03;;;;;;;1.55;0.80;;;;;;;;;;5039301;28;20108;-57
2024/03/14 11:30:29;;;;;;;1.30;0.70;;;;;;;;;;5045166;28;20417;-58
2024/03/14 11:32:57;;;;;;;1.27;0.60;;;;;;;;;;5029204;28;20951;-59
2024/03/14 11:35:32;;;;;;;1.08;0.70;;;;;;;;;;5026608;28;20041;-57
2024/03/14 11:37:58;;;;;;;1.15;0.70;;;;;;;;;;5025658;28;20225;-57
2024/03/14 11:40:24;;;;;;;1.00;0.60;;;;;;;;;;5042140;28;20120;-57
2024/03/14 11:42:52;;;;;;;0.70;0.47;;;;;;;;;;5025189;28;20456;-57
2024/03/14 11:45:18;;;;;;;1.15;0.80;;;;;;;;;;5041704;28;20036;-60
2024/03/14 11:47:43;;;;;;;0.90;0.60;;;;;;;;;;5030184;28;20092;-57
2024/03/14 11:50:09;;;;;;;1.52;0.55;;;;;;;;;;5024161;28;20465;-58
2024/03/14 11:52:35;;;;;;;1.33;0.68;;;;;;;;;;5026093;28;20034;-59
2024/03/14 11:55:05;;;;;;;1.08;0.70;;;;;;;;;;5026005;28;20068;-57
2024/03/14 11:57:30;;;;;;;0.95;0.60;;;;;;;;;;5038619;28;20041;-60
2024/03/14 11:59:56;;;;;;;1.73;0.70;;;;;;;;;;5025558;28;20520;-60
2024/03/14 12:02:23;;;;;;;1.40;0.70;;;;;;;;;;5027198;28;20538;-64
2024/03/14 12:04:48;;;;;;;1.17;0.80;;;;;;;;;;5026039;28;20033;-57
2024/03/14 12:07:14;;;;;;;1.42;0.60;;;;;;;;;;5041235;28;20049;-57
2024/03/14 12:09:39;;;;;;;1.45;0.80;;;;;;;;;;5025865;28;20048;-57
2024/03/14 12:12:04;;;;;;;1.05;0.70;;;;;;;;;;5043035;28;20476;-57
2024/03/14 12:14:30;;;;;;;1.08;0.80;;;;;;;;;;5045386;28;20049;-57
2024/03/14 12:16:55;;;;;;;1.40;0.50;;;;;;;;;;5045833;28;20540;-57
2024/03/14 12:19:20;;;;;;;1.13;0.73;;;;;;;;;;5024688;28;20116;-57
2024/03/14 12:21:49;;;;;;;0.95;0.60;;;;;;;;;;5025966;28;20033;-56
2024/03/14 12:24:14;;;;;;;1.33;0.70;;;;;;;;;;5025532;28;20425;-58
2024/03/14 12:26:41;;;;;;;0.93;0.60;;;;;;;;;;5044598;28;20039;-61
2024/03/14 12:29:07;;;;;;;1.25;0.70;;;;;;;;;;5034629;28;20180;-61
2024/03/14 12:31:32;;;;;;;1.33;0.60;;;;;;;;;;5045758;28;20493;-63
2024/03/14 12:33:58;;;;;;;1.60;0.70;;;;;;;;;;5029248;28;20048;-57
2024/03/14 12:36:24;;;;;;;1.08;0.70;;;;;;;;;;5025405;28;20029;-57
2024/03/14 12:38:52;;;;;;;1.40;0.80;;;;;;;;;;5024842;28;20123;-60
2024/03/14 12:41:21;;;;;;;1.55;0.70;;;;;;;;;;5036144;28;20097;-57
2024/03/14 12:43:47;;;;;;;1.75;0.75;;;;;;;;;;5026086;28;20025;-61
2024/03/14 12:46:12;;;;;;;1.02;0.68;;;;;;;;;;5045026;28;20032;-57
2024/03/14 12:48:38;;;;;;;0.65;0.47;;;;;;;;;;5033470;28;20037;-62
2024/03/14 12:51:10;;;;;;;1.10;0.60;;;;;;;;;;5023987;28;20017;-62
2024/03/14 12:53:35;;;;;;;1.85;0.70;;;;;;;;;;5025085;28;20042;-57
2024/03/14 12:56:01;;;;;;;1.05;0.60;;;;;;;;;;5025142;28;20028;-57
2024/03/14 12:58:26;;;;;;;1.05;0.57;;;;;;;;;;5024802;28;20521;-56
2024/03/14 13:00:52;;;;;;;1.67;0.75;;;;;;;;;;5026497;28;20114;-57
2024/03/14 13:03:23;;;;;;;1.33;0.70;;;;;;;;;;5040097;28;20029;-59
2024/03/14 13:05:55;;;;;;;1.17;0.60;;;;;;;;;;5029291;28;20044;-62
2024/03/14 13:08:22;;;;;;;1.20;0.77;;;;;;;;;;5037936;28;20084;-58
2024/03/14 13:10:47;;;;;;;0.90;0.60;;;;;;;;;;5021700;28;20029;-61
2024/03/14 13:13:17;;;;;;;1.30;0.65;;;;;;;;;;5045052;28;20041;-62
2024/03/14 13:15:46;;;;;;;1.20;0.70;;;;;;;;;;5044681;28;20440;-62
2024/03/14 13:18:17;;;;;;;1.20;0.70;;;;;;;;;;5039048;28;20164;-61
2024/03/14 13:20:43;;;;;;;1.38;0.70;;;;;;;;;;5024505;28;20338;-67
2024/03/14 13:23:09;;;;;;;1.75;0.60;;;;;;;;;;5030143;28;20021;-60
2024/03/14 13:25:37;;;;;;;1.70;0.70;;;;;;;;;;5044681;28;20029;-64
2024/03/14 13:28:03;;;;;;;1.25;0.60;;;;;;;;;;5043195;28;20025;-62
2024/03/14 13:30:30;;;;;;;2.15;0.90;;;;;;;;;;5041316;28;20032;-64
2024/03/14 13:32:56;;;;;;;0.90;0.60;;;;;;;;;;5045141;28;20040;-58
2024/03/14 13:35:26;;;;;;;1.00;0.60;;;;;;;;;;5024659;28;20837;-66
2024/03/14 13:37:51;;;;;;;1.10;0.60;;;;;;;;;;5026512;28;20033;-60
2024/03/14 13:40:19;;;;;;;1.30;0.70;;;;;;;;;;5036461;28;20037;-59
2024/03/14 13:42:44;;;;;;;1.00;0.65;;;;;;;;;;5029574;28;20030;-57
2024/03/14 13:45:16;;;;;;;0.88;0.60;;;;;;;;;;5029090;28;20056;-60
2024/03/14 13:47:42;;;;;;;1.17;0.70;;;;;;;;;;5028696;28;20030;-66
2024/03/14 13:50:09;;;;;;;1.00;0.63;;;;;;;;;;5027828;28;20033;-59
2024/03/14 13:52:35;;;;;;;1.70;0.70;;;;;;;;;;5038215;28;20033;-61
2024/03/14 13:55:01;;;;;;;1.20;0.70;;;;;;;;;;5049267;28;20033;-61
2024/03/14 13:57:26;;;;;;;1.08;0.60;;;;;;;;;;5048474;28;20094;-58
2024/03/14 13:59:52;;;;;;;1.17;0.70;;;;;;;;;;5044958;28;20302;-64
2024/03/14 14:02:18;;;;;;;0.90;0.60;;;;;;;;;;5032161;28;20123;-60
2024/03/14 14:04:44;;;;;;;1.30;0.60;;;;;;;;;;5021784;28;20040;-68
2024/03/14 14:07:13;;;;;;;1.10;0.65;;;;;;;;;;5039110;28;20465;-63
2024/03/14 14:09:38;;;;;;;1.88;0.70;;;;;;;;;;5034940;28;20488;-69
2024/03/14 14:12:05;;;;;;;1.58;0.75;;;;;;;;;;5039188;28;20056;-61
2024/03/14 14:14:33;;;;;;;1.17;0.70;;;;;;;;;;5048299;28;20051;-57
2024/03/14 14:16:59;;;;;;;3.17;1.02;;;;;;;;;;5048125;28;20029;-69
2024/03/14 14:19:26;;;;;;;2.85;1.05;;;;;;;;;;5038267;28;20107;-57
2024/03/14 14:21:51;;;;;;;1.70;0.82;;;;;;;;;;5027447;28;20037;-63
2024/03/14 14:24:17;;;;;;;1.80;0.85;;;;;;;;;;5040955;28;20124;-70
2024/03/14 14:26:43;;;;;;;1.33;0.70;;;;;;;;;;5047515;28;20039;-69
2024/03/14 14:29:08;;;;;;;1.42;1.00;;;;;;;;;;5045679;28;20044;-69
2024/03/14 14:31:33;;;;;;;1.88;0.93;;;;;;;;;;5039728;28;20026;-68
2024/03/14 14:33:59;;;;;;;2.58;1.13;;;;;;;;;;5028207;28;20046;-69
2024/03/14 14:36:25;;;;;;;2.20;0.70;;;;;;;;;;5039786;28;20044;-69
2024/03/14 14:38:52;;;;;;;1.17;0.73;;;;;;;;;;5039130;28;20041;-61